sensor_id;sensor_type;location;lat;lon;timestamp;P1;durP1;ratioP1;P2;durP2;ratioP2
24163;SDS011;12319;49.204;8.116;2023-06-10T00:01:26;6.18;;;4.53;;
24163;SDS011;12319;49.204;8.116;2023-06-10T00:03:53;6.75;;;4.32;;
24163;SDS011;12319;49.204;8.116;2023-06-10T00:06:19;6.63;;;4.20;;
24163;SDS011;12319;49.204;8.116;2023-06-10T00:08:46;6.45;;;5.00;;
24163;SDS011;12319;49.204;8.116;2023-06-10T00:11:12;5.10;;;2.97;;
24163;SDS011;12319;49.204;8.116;2023-06-10T00:13:38;5.30;;;2.87;;
24163;SDS011;12319;49.204;8.116;2023-06-10T00:16:05;5.50;;;3.20;;
24163;SDS011;12319;49.204;8.116;2023-06-10T00:18:30;5.30;;;3.20;;
24163;SDS011;12319;49.204;8.116;2023-06-10T00:20:56;6.22;;;3.13;;
24163;SDS011;12319;49.204;8.116;2023-06-10T00:23:29;5.10;;;2.90;;
24163;SDS011;12319;49.204;8.116;2023-06-10T00:25:56;4.78;;;2.83;;
24163;SDS011;12319;49.204;8.116;2023-06-10T00:28:24;4.90;;;2.75;;
24163;SDS011;12319;49.204;8.116;2023-06-10T00:30:51;6.68;;;3.00;;
24163;SDS011;12319;49.204;8.116;2023-06-10T00:33:16;5.30;;;2.87;;
24163;SDS011;12319;49.204;8.116;2023-06-10T00:35:42;5.53;;;2.58;;
24163;SDS011;12319;49.204;8.116;2023-06-10T00:38:07;5.10;;;2.80;;
24163;SDS011;12319;49.204;8.116;2023-06-10T00:40:33;5.10;;;3.00;;
24163;SDS011;12319;49.204;8.116;2023-06-10T00:43:04;5.95;;;3.17;;
24163;SDS011;12319;49.204;8.116;2023-06-10T00:45:30;5.13;;;3.00;;
24163;SDS011;12319;49.204;8.116;2023-06-10T00:47:56;5.22;;;2.92;;
24163;SDS011;12319;49.204;8.116;2023-06-10T00:50:22;5.07;;;2.72;;
24163;SDS011;12319;49.204;8.116;2023-06-10T00:52:48;5.10;;;2.87;;
24163;SDS011;12319;49.204;8.116;2023-06-10T00:55:14;5.93;;;2.80;;
24163;SDS011;12319;49.204;8.116;2023-06-10T00:57:41;5.40;;;3.00;;
24163;SDS011;12319;49.204;8.116;2023-06-10T01:00:09;5.22;;;2.85;;
24163;SDS011;12319;49.204;8.116;2023-06-10T01:02:36;5.68;;;2.75;;
24163;SDS011;12319;49.204;8.116;2023-06-10T01:05:01;5.05;;;2.70;;
24163;SDS011;12319;49.204;8.116;2023-06-10T01:07:31;5.38;;;2.85;;
24163;SDS011;12319;49.204;8.116;2023-06-10T01:10:11;7.63;;;2.73;;
24163;SDS011;12319;49.204;8.116;2023-06-10T01:13:01;8.32;;;2.90;;
24163;SDS011;12319;49.204;8.116;2023-06-10T01:15:28;5.00;;;2.80;;
24163;SDS011;12319;49.204;8.116;2023-06-10T01:17:59;4.95;;;2.72;;
24163;SDS011;12319;49.204;8.116;2023-06-10T01:20:44;5.25;;;2.95;;
24163;SDS011;12319;49.204;8.116;2023-06-10T01:23:11;5.90;;;2.90;;
24163;SDS011;12319;49.204;8.116;2023-06-10T01:25:37;4.25;;;2.30;;
24163;SDS011;12319;49.204;8.116;2023-06-10T01:28:17;5.00;;;2.80;;
24163;SDS011;12319;49.204;8.116;2023-06-10T01:30:55;5.82;;;2.92;;
24163;SDS011;12319;49.204;8.116;2023-06-10T01:33:47;4.77;;;2.50;;
24163;SDS011;12319;49.204;8.116;2023-06-10T01:36:17;4.60;;;2.47;;
24163;SDS011;12319;49.204;8.116;2023-06-10T01:38:44;4.72;;;2.70;;
24163;SDS011;12319;49.204;8.116;2023-06-10T01:41:16;5.15;;;2.55;;
24163;SDS011;12319;49.204;8.116;2023-06-10T01:43:43;4.68;;;2.50;;
24163;SDS011;12319;49.204;8.116;2023-06-10T01:46:09;5.78;;;2.63;;
24163;SDS011;12319;49.204;8.116;2023-06-10T01:48:36;5.05;;;2.63;;
24163;SDS011;12319;49.204;8.116;2023-06-10T01:51:03;6.00;;;2.78;;
24163;SDS011;12319;49.204;8.116;2023-06-10T01:53:29;4.82;;;2.60;;
24163;SDS011;12319;49.204;8.116;2023-06-10T01:55:55;5.40;;;3.10;;
24163;SDS011;12319;49.204;8.116;2023-06-10T01:58:20;5.53;;;2.50;;
24163;SDS011;12319;49.204;8.116;2023-06-10T02:00:46;5.03;;;2.70;;
24163;SDS011;12319;49.204;8.116;2023-06-10T02:03:11;4.90;;;2.57;;
24163;SDS011;12319;49.204;8.116;2023-06-10T02:05:37;4.80;;;2.60;;
24163;SDS011;12319;49.204;8.116;2023-06-10T02:08:03;5.00;;;2.58;;
24163;SDS011;12319;49.204;8.116;2023-06-10T02:10:28;5.87;;;2.90;;
24163;SDS011;12319;49.204;8.116;2023-06-10T02:12:54;5.43;;;2.72;;
24163;SDS011;12319;49.204;8.116;2023-06-10T02:15:20;5.50;;;2.43;;
24163;SDS011;12319;49.204;8.116;2023-06-10T02:17:45;4.90;;;2.47;;
24163;SDS011;12319;49.204;8.116;2023-06-10T02:20:11;5.40;;;2.80;;
24163;SDS011;12319;49.204;8.116;2023-06-10T02:22:38;4.82;;;2.72;;
24163;SDS011;12319;49.204;8.116;2023-06-10T02:25:05;4.30;;;2.40;;
24163;SDS011;12319;49.204;8.116;2023-06-10T02:27:31;5.00;;;2.50;;
24163;SDS011;12319;49.204;8.116;2023-06-10T02:29:57;6.55;;;2.58;;
24163;SDS011;12319;49.204;8.116;2023-06-10T02:32:23;4.90;;;2.50;;
24163;SDS011;12319;49.204;8.116;2023-06-10T02:34:48;5.27;;;2.50;;
24163;SDS011;12319;49.204;8.116;2023-06-10T02:37:15;6.10;;;2.55;;
24163;SDS011;12319;49.204;8.116;2023-06-10T02:39:41;5.40;;;2.70;;
24163;SDS011;12319;49.204;8.116;2023-06-10T02:42:07;4.70;;;2.40;;
24163;SDS011;12319;49.204;8.116;2023-06-10T02:44:32;4.80;;;2.53;;
24163;SDS011;12319;49.204;8.116;2023-06-10T02:46:58;5.13;;;2.87;;
24163;SDS011;12319;49.204;8.116;2023-06-10T02:49:24;5.68;;;2.70;;
24163;SDS011;12319;49.204;8.116;2023-06-10T02:51:52;4.32;;;2.40;;
24163;SDS011;12319;49.204;8.116;2023-06-10T02:54:19;7.10;;;2.70;;
24163;SDS011;12319;49.204;8.116;2023-06-10T02:56:45;6.10;;;2.70;;
24163;SDS011;12319;49.204;8.116;2023-06-10T02:59:13;4.93;;;2.73;;
24163;SDS011;12319;49.204;8.116;2023-06-10T03:01:39;5.18;;;2.55;;
24163;SDS011;12319;49.204;8.116;2023-06-10T03:04:05;5.53;;;2.97;;
24163;SDS011;12319;49.204;8.116;2023-06-10T03:06:31;4.82;;;2.78;;
24163;SDS011;12319;49.204;8.116;2023-06-10T03:08:59;4.57;;;2.57;;
24163;SDS011;12319;49.204;8.116;2023-06-10T03:11:25;4.47;;;2.40;;
24163;SDS011;12319;49.204;8.116;2023-06-10T03:13:51;4.97;;;2.63;;
24163;SDS011;12319;49.204;8.116;2023-06-10T03:16:17;4.88;;;2.70;;
24163;SDS011;12319;49.204;8.116;2023-06-10T03:18:43;4.83;;;2.47;;
24163;SDS011;12319;49.204;8.116;2023-06-10T03:21:09;5.30;;;2.80;;
24163;SDS011;12319;49.204;8.116;2023-06-10T03:23:34;5.60;;;2.40;;
24163;SDS011;12319;49.204;8.116;2023-06-10T03:26:00;4.95;;;2.67;;
24163;SDS011;12319;49.204;8.116;2023-06-10T03:28:26;4.50;;;2.58;;
24163;SDS011;12319;49.204;8.116;2023-06-10T03:30:52;4.90;;;2.37;;
24163;SDS011;12319;49.204;8.116;2023-06-10T03:33:17;5.30;;;2.80;;
24163;SDS011;12319;49.204;8.116;2023-06-10T03:35:43;4.90;;;2.70;;
24163;SDS011;12319;49.204;8.116;2023-06-10T03:38:09;5.23;;;2.70;;
24163;SDS011;12319;49.204;8.116;2023-06-10T03:40:34;5.28;;;2.97;;
24163;SDS011;12319;49.204;8.116;2023-06-10T03:43:00;5.20;;;2.80;;
24163;SDS011;12319;49.204;8.116;2023-06-10T03:45:25;5.20;;;2.70;;
24163;SDS011;12319;49.204;8.116;2023-06-10T03:47:53;6.30;;;2.70;;
24163;SDS011;12319;49.204;8.116;2023-06-10T03:50:19;4.88;;;2.40;;
24163;SDS011;12319;49.204;8.116;2023-06-10T03:52:44;5.32;;;2.70;;
24163;SDS011;12319;49.204;8.116;2023-06-10T03:55:11;5.03;;;2.60;;
24163;SDS011;12319;49.204;8.116;2023-06-10T03:57:38;5.70;;;2.38;;
24163;SDS011;12319;49.204;8.116;2023-06-10T04:00:04;5.05;;;2.58;;
24163;SDS011;12319;49.204;8.116;2023-06-10T04:02:35;5.07;;;2.63;;
24163;SDS011;12319;49.204;8.116;2023-06-10T04:05:01;5.70;;;2.70;;
24163;SDS011;12319;49.204;8.116;2023-06-10T04:07:27;4.78;;;2.60;;
24163;SDS011;12319;49.204;8.116;2023-06-10T04:09:53;5.10;;;2.95;;
24163;SDS011;12319;49.204;8.116;2023-06-10T04:12:19;4.77;;;2.70;;
24163;SDS011;12319;49.204;8.116;2023-06-10T04:14:44;4.93;;;2.73;;
24163;SDS011;12319;49.204;8.116;2023-06-10T04:17:10;5.05;;;2.55;;
24163;SDS011;12319;49.204;8.116;2023-06-10T04:19:36;4.60;;;2.60;;
24163;SDS011;12319;49.204;8.116;2023-06-10T04:22:01;5.60;;;2.92;;
24163;SDS011;12319;49.204;8.116;2023-06-10T04:24:30;4.57;;;2.50;;
24163;SDS011;12319;49.204;8.116;2023-06-10T04:26:56;5.60;;;2.80;;
24163;SDS011;12319;49.204;8.116;2023-06-10T04:29:21;6.68;;;2.72;;
24163;SDS011;12319;49.204;8.116;2023-06-10T04:31:47;5.55;;;2.83;;
24163;SDS011;12319;49.204;8.116;2023-06-10T04:34:13;5.40;;;3.00;;
24163;SDS011;12319;49.204;8.116;2023-06-10T04:36:39;5.00;;;2.70;;
24163;SDS011;12319;49.204;8.116;2023-06-10T04:39:04;5.80;;;2.80;;
24163;SDS011;12319;49.204;8.116;2023-06-10T04:41:30;5.25;;;2.67;;
24163;SDS011;12319;49.204;8.116;2023-06-10T04:43:56;4.82;;;2.70;;
24163;SDS011;12319;49.204;8.116;2023-06-10T04:46:22;4.77;;;2.77;;
24163;SDS011;12319;49.204;8.116;2023-06-10T04:48:49;5.50;;;3.10;;
24163;SDS011;12319;49.204;8.116;2023-06-10T04:51:14;5.35;;;2.97;;
24163;SDS011;12319;49.204;8.116;2023-06-10T04:53:40;4.83;;;2.50;;
24163;SDS011;12319;49.204;8.116;2023-06-10T04:56:06;5.47;;;2.80;;
24163;SDS011;12319;49.204;8.116;2023-06-10T04:58:32;4.90;;;2.20;;
24163;SDS011;12319;49.204;8.116;2023-06-10T05:00:58;5.20;;;2.50;;
24163;SDS011;12319;49.204;8.116;2023-06-10T05:03:24;4.80;;;2.40;;
24163;SDS011;12319;49.204;8.116;2023-06-10T05:05:50;4.88;;;2.55;;
24163;SDS011;12319;49.204;8.116;2023-06-10T05:08:16;5.30;;;2.80;;
24163;SDS011;12319;49.204;8.116;2023-06-10T05:10:41;5.07;;;2.37;;
24163;SDS011;12319;49.204;8.116;2023-06-10T05:13:07;5.53;;;2.92;;
24163;SDS011;12319;49.204;8.116;2023-06-10T05:15:32;5.17;;;2.80;;
24163;SDS011;12319;49.204;8.116;2023-06-10T05:17:58;5.72;;;3.03;;
24163;SDS011;12319;49.204;8.116;2023-06-10T05:20:24;5.30;;;2.70;;
24163;SDS011;12319;49.204;8.116;2023-06-10T05:22:50;5.20;;;2.85;;
24163;SDS011;12319;49.204;8.116;2023-06-10T05:25:16;6.70;;;2.93;;
24163;SDS011;12319;49.204;8.116;2023-06-10T05:27:42;4.67;;;2.53;;
24163;SDS011;12319;49.204;8.116;2023-06-10T05:30:08;4.80;;;2.53;;
24163;SDS011;12319;49.204;8.116;2023-06-10T05:32:35;5.00;;;2.80;;
24163;SDS011;12319;49.204;8.116;2023-06-10T05:35:01;5.70;;;3.22;;
24163;SDS011;12319;49.204;8.116;2023-06-10T05:37:27;5.00;;;2.83;;
24163;SDS011;12319;49.204;8.116;2023-06-10T05:39:52;6.07;;;3.40;;
24163;SDS011;12319;49.204;8.116;2023-06-10T05:42:18;5.80;;;4.27;;
24163;SDS011;12319;49.204;8.116;2023-06-10T05:44:43;6.10;;;5.10;;
24163;SDS011;12319;49.204;8.116;2023-06-10T05:47:09;6.40;;;5.05;;
24163;SDS011;12319;49.204;8.116;2023-06-10T05:49:34;6.88;;;5.60;;
24163;SDS011;12319;49.204;8.116;2023-06-10T05:52:00;5.87;;;4.90;;
24163;SDS011;12319;49.204;8.116;2023-06-10T05:54:26;5.63;;;4.63;;
24163;SDS011;12319;49.204;8.116;2023-06-10T05:56:51;6.20;;;4.75;;
24163;SDS011;12319;49.204;8.116;2023-06-10T05:59:17;6.38;;;4.93;;
24163;SDS011;12319;49.204;8.116;2023-06-10T06:01:42;6.40;;;4.90;;
24163;SDS011;12319;49.204;8.116;2023-06-10T06:04:08;6.10;;;5.10;;
24163;SDS011;12319;49.204;8.116;2023-06-10T06:06:34;5.90;;;4.60;;
24163;SDS011;12319;49.204;8.116;2023-06-10T06:09:00;6.32;;;4.95;;
24163;SDS011;12319;49.204;8.116;2023-06-10T06:11:25;6.25;;;5.32;;
24163;SDS011;12319;49.204;8.116;2023-06-10T06:13:51;5.60;;;4.40;;
24163;SDS011;12319;49.204;8.116;2023-06-10T06:16:17;6.20;;;4.90;;
24163;SDS011;12319;49.204;8.116;2023-06-10T06:18:43;5.63;;;4.10;;
24163;SDS011;12319;49.204;8.116;2023-06-10T06:21:09;5.82;;;4.88;;
24163;SDS011;12319;49.204;8.116;2023-06-10T06:23:34;5.70;;;4.77;;
24163;SDS011;12319;49.204;8.116;2023-06-10T06:26:00;5.65;;;4.40;;
24163;SDS011;12319;49.204;8.116;2023-06-10T06:28:26;6.55;;;5.05;;
24163;SDS011;12319;49.204;8.116;2023-06-10T06:30:54;5.60;;;4.30;;
24163;SDS011;12319;49.204;8.116;2023-06-10T06:33:20;6.72;;;4.68;;
24163;SDS011;12319;49.204;8.116;2023-06-10T06:35:46;5.93;;;4.13;;
24163;SDS011;12319;49.204;8.116;2023-06-10T06:38:11;6.00;;;4.10;;
24163;SDS011;12319;49.204;8.116;2023-06-10T06:40:37;5.43;;;4.40;;
24163;SDS011;12319;49.204;8.116;2023-06-10T06:43:02;5.40;;;4.43;;
24163;SDS011;12319;49.204;8.116;2023-06-10T06:45:28;5.10;;;4.17;;
24163;SDS011;12319;49.204;8.116;2023-06-10T06:47:53;5.70;;;4.80;;
24163;SDS011;12319;49.204;8.116;2023-06-10T06:50:20;5.63;;;4.47;;
24163;SDS011;12319;49.204;8.116;2023-06-10T06:52:46;5.80;;;5.18;;
24163;SDS011;12319;49.204;8.116;2023-06-10T06:55:11;6.20;;;4.53;;
24163;SDS011;12319;49.204;8.116;2023-06-10T06:57:37;5.20;;;4.00;;
24163;SDS011;12319;49.204;8.116;2023-06-10T07:00:03;6.10;;;4.75;;
24163;SDS011;12319;49.204;8.116;2023-06-10T07:02:29;5.53;;;4.30;;
24163;SDS011;12319;49.204;8.116;2023-06-10T07:04:57;5.55;;;4.28;;
24163;SDS011;12319;49.204;8.116;2023-06-10T07:07:23;5.60;;;4.57;;
24163;SDS011;12319;49.204;8.116;2023-06-10T07:09:49;5.60;;;4.30;;
24163;SDS011;12319;49.204;8.116;2023-06-10T07:12:15;5.80;;;5.03;;
24163;SDS011;12319;49.204;8.116;2023-06-10T07:14:40;6.20;;;4.73;;
24163;SDS011;12319;49.204;8.116;2023-06-10T07:17:06;6.47;;;4.95;;
24163;SDS011;12319;49.204;8.116;2023-06-10T07:19:31;5.93;;;4.90;;
24163;SDS011;12319;49.204;8.116;2023-06-10T07:21:57;5.73;;;5.10;;
24163;SDS011;12319;49.204;8.116;2023-06-10T07:24:22;5.90;;;4.40;;
24163;SDS011;12319;49.204;8.116;2023-06-10T07:26:48;6.03;;;4.80;;
24163;SDS011;12319;49.204;8.116;2023-06-10T07:29:13;6.70;;;5.00;;
24163;SDS011;12319;49.204;8.116;2023-06-10T07:31:40;5.80;;;5.03;;
24163;SDS011;12319;49.204;8.116;2023-06-10T07:34:06;5.65;;;4.70;;
24163;SDS011;12319;49.204;8.116;2023-06-10T07:36:31;6.85;;;4.72;;
24163;SDS011;12319;49.204;8.116;2023-06-10T07:38:57;5.87;;;4.70;;
24163;SDS011;12319;49.204;8.116;2023-06-10T07:41:23;5.93;;;4.97;;
24163;SDS011;12319;49.204;8.116;2023-06-10T07:43:50;6.95;;;4.55;;
24163;SDS011;12319;49.204;8.116;2023-06-10T07:46:19;5.50;;;4.90;;
24163;SDS011;12319;49.204;8.116;2023-06-10T07:48:46;6.43;;;4.68;;
24163;SDS011;12319;49.204;8.116;2023-06-10T07:51:12;5.70;;;4.40;;
24163;SDS011;12319;49.204;8.116;2023-06-10T07:53:37;5.28;;;4.57;;
24163;SDS011;12319;49.204;8.116;2023-06-10T07:56:03;5.30;;;4.43;;
24163;SDS011;12319;49.204;8.116;2023-06-10T07:58:28;5.72;;;4.75;;
24163;SDS011;12319;49.204;8.116;2023-06-10T08:00:54;5.63;;;4.30;;
24163;SDS011;12319;49.204;8.116;2023-06-10T08:03:20;5.00;;;3.80;;
24163;SDS011;12319;49.204;8.116;2023-06-10T08:05:45;5.82;;;3.90;;
24163;SDS011;12319;49.204;8.116;2023-06-10T08:08:11;5.40;;;4.30;;
24163;SDS011;12319;49.204;8.116;2023-06-10T08:10:37;5.57;;;4.60;;
24163;SDS011;12319;49.204;8.116;2023-06-10T08:13:03;4.90;;;3.73;;
24163;SDS011;12319;49.204;8.116;2023-06-10T08:15:29;5.32;;;4.22;;
24163;SDS011;12319;49.204;8.116;2023-06-10T08:17:54;5.60;;;4.47;;
24163;SDS011;12319;49.204;8.116;2023-06-10T08:20:21;5.60;;;4.28;;
24163;SDS011;12319;49.204;8.116;2023-06-10T08:22:47;5.30;;;4.43;;
24163;SDS011;12319;49.204;8.116;2023-06-10T08:25:12;5.87;;;4.20;;
24163;SDS011;12319;49.204;8.116;2023-06-10T08:27:38;5.78;;;4.05;;
24163;SDS011;12319;49.204;8.116;2023-06-10T08:30:04;5.22;;;4.13;;
24163;SDS011;12319;49.204;8.116;2023-06-10T08:32:30;5.43;;;4.25;;
24163;SDS011;12319;49.204;8.116;2023-06-10T08:34:55;5.70;;;4.60;;
24163;SDS011;12319;49.204;8.116;2023-06-10T08:37:21;5.73;;;4.63;;
24163;SDS011;12319;49.204;8.116;2023-06-10T08:39:47;5.47;;;4.53;;
24163;SDS011;12319;49.204;8.116;2023-06-10T08:45:27;5.68;;;4.68;;
24163;SDS011;12319;49.204;8.116;2023-06-10T08:47:56;5.47;;;4.60;;
24163;SDS011;12319;49.204;8.116;2023-06-10T08:50:22;6.70;;;4.63;;
24163;SDS011;12319;49.204;8.116;2023-06-10T08:52:48;5.50;;;4.60;;
24163;SDS011;12319;49.204;8.116;2023-06-10T08:55:19;5.20;;;4.10;;
24163;SDS011;12319;49.204;8.116;2023-06-10T08:57:51;5.78;;;4.97;;
24163;SDS011;12319;49.204;8.116;2023-06-10T09:00:17;7.78;;;5.03;;
24163;SDS011;12319;49.204;8.116;2023-06-10T09:02:43;5.88;;;4.90;;
24163;SDS011;12319;49.204;8.116;2023-06-10T09:05:10;5.57;;;4.53;;
24163;SDS011;12319;49.204;8.116;2023-06-10T09:07:35;5.40;;;4.27;;
24163;SDS011;12319;49.204;8.116;2023-06-10T09:10:02;5.63;;;4.40;;
24163;SDS011;12319;49.204;8.116;2023-06-10T09:12:31;5.50;;;4.53;;
24163;SDS011;12319;49.204;8.116;2023-06-10T09:14:57;6.43;;;4.95;;
24163;SDS011;12319;49.204;8.116;2023-06-10T09:17:23;5.90;;;4.87;;
24163;SDS011;12319;49.204;8.116;2023-06-10T09:19:49;6.10;;;5.35;;
24163;SDS011;12319;49.204;8.116;2023-06-10T09:22:18;5.67;;;4.80;;
24163;SDS011;12319;49.204;8.116;2023-06-10T09:24:44;5.75;;;4.75;;
24163;SDS011;12319;49.204;8.116;2023-06-10T09:27:11;5.72;;;4.80;;
24163;SDS011;12319;49.204;8.116;2023-06-10T09:30:10;6.70;;;4.93;;
24163;SDS011;12319;49.204;8.116;2023-06-10T09:32:28;6.15;;;4.90;;
24163;SDS011;12319;49.204;8.116;2023-06-10T09:34:55;6.28;;;4.78;;
24163;SDS011;12319;49.204;8.116;2023-06-10T09:37:21;5.90;;;4.90;;
24163;SDS011;12319;49.204;8.116;2023-06-10T09:40:08;5.68;;;4.57;;
24163;SDS011;12319;49.204;8.116;2023-06-10T09:42:35;5.95;;;4.88;;
24163;SDS011;12319;49.204;8.116;2023-06-10T09:45:03;5.30;;;4.00;;
24163;SDS011;12319;49.204;8.116;2023-06-10T09:47:30;6.03;;;4.80;;
24163;SDS011;12319;49.204;8.116;2023-06-10T09:49:56;5.70;;;4.50;;
24163;SDS011;12319;49.204;8.116;2023-06-10T09:52:25;5.60;;;4.57;;
24163;SDS011;12319;49.204;8.116;2023-06-10T09:54:52;6.60;;;5.20;;
24163;SDS011;12319;49.204;8.116;2023-06-10T09:57:21;5.72;;;4.80;;
24163;SDS011;12319;49.204;8.116;2023-06-10T09:59:47;5.50;;;4.47;;
24163;SDS011;12319;49.204;8.116;2023-06-10T10:02:17;6.00;;;4.90;;
24163;SDS011;12319;49.204;8.116;2023-06-10T10:04:43;5.97;;;4.75;;
24163;SDS011;12319;49.204;8.116;2023-06-10T10:07:10;5.90;;;4.60;;
24163;SDS011;12319;49.204;8.116;2023-06-10T10:09:37;6.03;;;4.95;;
24163;SDS011;12319;49.204;8.116;2023-06-10T10:12:08;5.80;;;4.95;;
24163;SDS011;12319;49.204;8.116;2023-06-10T10:14:36;5.65;;;4.60;;
24163;SDS011;12319;49.204;8.116;2023-06-10T10:17:07;6.00;;;4.88;;
24163;SDS011;12319;49.204;8.116;2023-06-10T10:19:40;5.90;;;5.10;;
24163;SDS011;12319;49.204;8.116;2023-06-10T10:22:15;5.55;;;4.30;;
24163;SDS011;12319;49.204;8.116;2023-06-10T10:24:51;5.95;;;4.35;;
24163;SDS011;12319;49.204;8.116;2023-06-10T10:27:21;5.93;;;4.22;;
24163;SDS011;12319;49.204;8.116;2023-06-10T10:29:55;5.57;;;4.43;;
24163;SDS011;12319;49.204;8.116;2023-06-10T10:32:26;6.20;;;5.00;;
24163;SDS011;12319;49.204;8.116;2023-06-10T10:35:14;6.32;;;4.93;;
24163;SDS011;12319;49.204;8.116;2023-06-10T10:37:52;5.47;;;4.70;;
24163;SDS011;12319;49.204;8.116;2023-06-10T10:40:20;6.03;;;5.10;;
24163;SDS011;12319;49.204;8.116;2023-06-10T10:42:47;5.82;;;4.97;;
24163;SDS011;12319;49.204;8.116;2023-06-10T10:45:16;6.40;;;4.57;;
24163;SDS011;12319;49.204;8.116;2023-06-10T10:47:43;5.53;;;4.43;;
24163;SDS011;12319;49.204;8.116;2023-06-10T10:50:14;5.80;;;4.55;;
24163;SDS011;12319;49.204;8.116;2023-06-10T10:52:54;5.90;;;4.70;;
24163;SDS011;12319;49.204;8.116;2023-06-10T10:55:23;6.50;;;4.70;;
24163;SDS011;12319;49.204;8.116;2023-06-10T10:57:54;5.70;;;4.70;;
24163;SDS011;12319;49.204;8.116;2023-06-10T11:00:24;5.70;;;4.57;;
24163;SDS011;12319;49.204;8.116;2023-06-10T11:02:57;6.10;;;4.90;;
24163;SDS011;12319;49.204;8.116;2023-06-10T11:08:13;6.18;;;4.95;;
24163;SDS011;12319;49.204;8.116;2023-06-10T11:10:41;6.10;;;5.00;;
24163;SDS011;12319;49.204;8.116;2023-06-10T11:13:19;5.70;;;4.47;;
24163;SDS011;12319;49.204;8.116;2023-06-10T11:15:50;6.75;;;5.20;;
24163;SDS011;12319;49.204;8.116;2023-06-10T11:18:23;6.22;;;5.07;;
24163;SDS011;12319;49.204;8.116;2023-06-10T11:21:03;6.25;;;4.75;;
24163;SDS011;12319;49.204;8.116;2023-06-10T11:31:21;6.22;;;4.82;;
24163;SDS011;12319;49.204;8.116;2023-06-10T11:33:54;5.63;;;4.68;;
24163;SDS011;12319;49.204;8.116;2023-06-10T11:36:21;7.10;;;4.70;;
24163;SDS011;12319;49.204;8.116;2023-06-10T11:38:48;6.55;;;5.00;;
24163;SDS011;12319;49.204;8.116;2023-06-10T11:41:14;6.97;;;5.35;;
24163;SDS011;12319;49.204;8.116;2023-06-10T11:43:42;6.45;;;4.93;;
24163;SDS011;12319;49.204;8.116;2023-06-10T11:46:12;5.55;;;4.30;;
24163;SDS011;12319;49.204;8.116;2023-06-10T11:48:38;6.87;;;5.20;;
24163;SDS011;12319;49.204;8.116;2023-06-10T11:51:07;5.82;;;4.45;;
24163;SDS011;12319;49.204;8.116;2023-06-10T11:53:33;6.40;;;4.90;;
24163;SDS011;12319;49.204;8.116;2023-06-10T11:55:59;5.80;;;4.60;;
24163;SDS011;12319;49.204;8.116;2023-06-10T11:58:24;5.90;;;4.53;;
24163;SDS011;12319;49.204;8.116;2023-06-10T12:00:51;6.03;;;5.07;;
24163;SDS011;12319;49.204;8.116;2023-06-10T12:03:18;5.50;;;4.20;;
24163;SDS011;12319;49.204;8.116;2023-06-10T12:05:55;5.85;;;5.05;;
24163;SDS011;12319;49.204;8.116;2023-06-10T12:08:24;7.30;;;5.10;;
24163;SDS011;12319;49.204;8.116;2023-06-10T12:10:50;6.20;;;5.20;;
24163;SDS011;12319;49.204;8.116;2023-06-10T12:13:16;6.28;;;5.13;;
24163;SDS011;12319;49.204;8.116;2023-06-10T12:15:43;8.13;;;5.47;;
24163;SDS011;12319;49.204;8.116;2023-06-10T12:18:15;6.68;;;5.53;;
24163;SDS011;12319;49.204;8.116;2023-06-10T12:20:44;6.07;;;5.10;;
24163;SDS011;12319;49.204;8.116;2023-06-10T12:23:11;6.63;;;5.15;;
24163;SDS011;12319;49.204;8.116;2023-06-10T12:25:37;6.43;;;5.03;;
24163;SDS011;12319;49.204;8.116;2023-06-10T12:28:04;5.68;;;5.00;;
24163;SDS011;12319;49.204;8.116;2023-06-10T12:30:31;5.80;;;5.05;;
24163;SDS011;12319;49.204;8.116;2023-06-10T12:32:57;5.80;;;5.07;;
24163;SDS011;12319;49.204;8.116;2023-06-10T12:35:23;5.60;;;4.55;;
24163;SDS011;12319;49.204;8.116;2023-06-10T12:38:03;6.13;;;4.90;;
24163;SDS011;12319;49.204;8.116;2023-06-10T12:40:36;5.78;;;4.60;;
24163;SDS011;12319;49.204;8.116;2023-06-10T12:43:02;5.60;;;4.67;;
24163;SDS011;12319;49.204;8.116;2023-06-10T12:45:37;6.00;;;5.00;;
24163;SDS011;12319;49.204;8.116;2023-06-10T12:48:08;6.80;;;4.78;;
24163;SDS011;12319;49.204;8.116;2023-06-10T12:50:42;6.05;;;5.13;;
24163;SDS011;12319;49.204;8.116;2023-06-10T12:53:09;6.10;;;5.40;;
24163;SDS011;12319;49.204;8.116;2023-06-10T12:55:36;7.15;;;5.22;;
24163;SDS011;12319;49.204;8.116;2023-06-10T12:58:02;6.53;;;5.22;;
24163;SDS011;12319;49.204;8.116;2023-06-10T13:00:28;5.72;;;4.55;;
24163;SDS011;12319;49.204;8.116;2023-06-10T13:03:00;5.70;;;4.47;;
24163;SDS011;12319;49.204;8.116;2023-06-10T13:05:26;7.63;;;5.07;;
24163;SDS011;12319;49.204;8.116;2023-06-10T13:07:52;6.00;;;4.72;;
24163;SDS011;12319;49.204;8.116;2023-06-10T13:10:18;5.47;;;4.60;;
24163;SDS011;12319;49.204;8.116;2023-06-10T13:12:45;5.87;;;4.43;;
24163;SDS011;12319;49.204;8.116;2023-06-10T13:15:11;5.10;;;4.05;;
24163;SDS011;12319;49.204;8.116;2023-06-10T13:17:38;5.47;;;4.38;;
24163;SDS011;12319;49.204;8.116;2023-06-10T13:20:05;6.23;;;4.93;;
24163;SDS011;12319;49.204;8.116;2023-06-10T13:22:32;6.43;;;4.60;;
24163;SDS011;12319;49.204;8.116;2023-06-10T13:24:59;5.68;;;4.70;;
24163;SDS011;12319;49.204;8.116;2023-06-10T13:27:28;6.32;;;4.85;;
24163;SDS011;12319;49.204;8.116;2023-06-10T13:29:54;5.70;;;4.70;;
24163;SDS011;12319;49.204;8.116;2023-06-10T13:32:20;5.35;;;3.95;;
24163;SDS011;12319;49.204;8.116;2023-06-10T13:34:46;5.03;;;3.73;;
24163;SDS011;12319;49.204;8.116;2023-06-10T13:37:11;7.40;;;4.67;;
24163;SDS011;12319;49.204;8.116;2023-06-10T13:39:40;5.60;;;4.38;;
24163;SDS011;12319;49.204;8.116;2023-06-10T13:42:05;6.20;;;5.03;;
24163;SDS011;12319;49.204;8.116;2023-06-10T13:44:32;6.00;;;4.40;;
24163;SDS011;12319;49.204;8.116;2023-06-10T13:47:01;5.72;;;4.95;;
24163;SDS011;12319;49.204;8.116;2023-06-10T13:49:30;5.97;;;5.10;;
24163;SDS011;12319;49.204;8.116;2023-06-10T13:51:55;6.13;;;5.00;;
24163;SDS011;12319;49.204;8.116;2023-06-10T13:54:21;5.70;;;4.47;;
24163;SDS011;12319;49.204;8.116;2023-06-10T13:56:47;5.13;;;4.00;;
24163;SDS011;12319;49.204;8.116;2023-06-10T13:59:12;5.50;;;4.30;;
24163;SDS011;12319;49.204;8.116;2023-06-10T14:01:38;5.78;;;3.70;;
24163;SDS011;12319;49.204;8.116;2023-06-10T14:04:04;5.60;;;4.60;;
24163;SDS011;12319;49.204;8.116;2023-06-10T14:06:30;5.40;;;4.10;;
24163;SDS011;12319;49.204;8.116;2023-06-10T14:08:57;5.30;;;4.45;;
24163;SDS011;12319;49.204;8.116;2023-06-10T14:11:23;5.70;;;4.30;;
24163;SDS011;12319;49.204;8.116;2023-06-10T14:13:48;5.53;;;4.90;;
24163;SDS011;12319;49.204;8.116;2023-06-10T14:16:14;5.93;;;4.75;;
24163;SDS011;12319;49.204;8.116;2023-06-10T14:18:39;5.10;;;3.93;;
24163;SDS011;12319;49.204;8.116;2023-06-10T14:21:05;5.80;;;4.40;;
24163;SDS011;12319;49.204;8.116;2023-06-10T14:23:30;5.53;;;4.47;;
24163;SDS011;12319;49.204;8.116;2023-06-10T14:25:56;5.30;;;4.10;;
24163;SDS011;12319;49.204;8.116;2023-06-10T14:28:21;5.40;;;4.70;;
24163;SDS011;12319;49.204;8.116;2023-06-10T14:30:48;5.10;;;3.90;;
24163;SDS011;12319;49.204;8.116;2023-06-10T14:33:14;5.10;;;4.10;;
24163;SDS011;12319;49.204;8.116;2023-06-10T14:35:40;5.50;;;4.70;;
24163;SDS011;12319;49.204;8.116;2023-06-10T14:38:06;5.32;;;4.57;;
24163;SDS011;12319;49.204;8.116;2023-06-10T14:40:31;5.40;;;4.50;;
24163;SDS011;12319;49.204;8.116;2023-06-10T14:42:57;6.00;;;4.60;;
24163;SDS011;12319;49.204;8.116;2023-06-10T14:45:22;6.68;;;5.45;;
24163;SDS011;12319;49.204;8.116;2023-06-10T14:47:49;5.30;;;4.10;;
24163;SDS011;12319;49.204;8.116;2023-06-10T14:50:14;5.80;;;4.47;;
24163;SDS011;12319;49.204;8.116;2023-06-10T14:52:40;5.50;;;4.73;;
24163;SDS011;12319;49.204;8.116;2023-06-10T14:55:06;5.97;;;4.90;;
24163;SDS011;12319;49.204;8.116;2023-06-10T14:57:31;6.97;;;4.75;;
24163;SDS011;12319;49.204;8.116;2023-06-10T14:59:57;8.00;;;6.00;;
24163;SDS011;12319;49.204;8.116;2023-06-10T15:02:23;7.10;;;5.97;;